createdAt,value
2022-12-06T00:02:17.208Z,92.85
2022-12-06T00:04:48.100Z,93.82
2022-12-06T00:07:16.990Z,94.44
2022-12-06T00:09:45.861Z,93.84
2022-12-06T00:12:14.776Z,95.94
2022-12-06T00:14:43.772Z,100.00
2022-12-06T00:17:14.051Z,100.00
2022-12-06T00:19:43.027Z,100.00
2022-12-06T00:22:11.982Z,100.00
2022-12-06T00:24:41.154Z,100.00
2022-12-06T00:27:10.518Z,98.28
2022-12-06T00:29:39.481Z,100.00
2022-12-06T00:32:08.467Z,100.00
2022-12-06T00:34:38.819Z,100.00
2022-12-06T00:37:07.660Z,100.00
2022-12-06T00:39:36.499Z,100.00
2022-12-06T00:42:05.482Z,100.00
2022-12-06T00:44:34.420Z,100.00
2022-12-06T00:47:03.691Z,99.22
2022-12-06T00:49:32.575Z,97.78
2022-12-06T00:52:03.272Z,98.67
2022-12-06T00:54:32.081Z,99.27
2022-12-06T00:57:00.952Z,98.02
2022-12-06T00:59:29.858Z,98.06
2022-12-06T01:01:58.811Z,98.44
2022-12-06T01:04:27.677Z,99.90
2022-12-06T01:06:56.587Z,100.00
2022-12-06T01:09:29.509Z,98.90
2022-12-06T01:11:58.905Z,97.34
2022-12-06T01:14:28.431Z,98.51
2022-12-06T01:16:57.433Z,99.69
2022-12-06T01:19:26.395Z,99.31
2022-12-06T01:21:55.245Z,98.53
2022-12-06T01:24:24.271Z,100.00
2022-12-06T01:26:54.492Z,100.00
2022-12-06T01:29:23.433Z,100.00
2022-12-06T01:31:52.305Z,100.00
2022-12-06T01:34:21.215Z,100.00
2022-12-06T01:36:50.883Z,100.00
2022-12-06T01:39:20.589Z,100.00
2022-12-06T01:41:49.616Z,100.00
2022-12-06T01:44:43.256Z,100.00
2022-12-06T01:47:19.933Z,100.00
2022-12-06T01:49:53.897Z,100.00
2022-12-06T01:52:25.599Z,100.00
2022-12-06T01:54:54.992Z,100.00
2022-12-06T01:57:24.076Z,100.00
2022-12-06T01:59:54.645Z,100.00
2022-12-06T02:02:23.643Z,99.82
2022-12-06T02:04:53.842Z,100.00
2022-12-06T02:07:23.679Z,100.00
2022-12-06T02:09:53.149Z,99.83
2022-12-06T02:12:22.121Z,99.07
2022-12-06T02:14:56.763Z,99.58
2022-12-06T02:17:36.965Z,98.97
2022-12-06T02:20:26.429Z,100.00
2022-12-06T02:23:39.901Z,100.00
2022-12-06T02:26:18.552Z,100.00
2022-12-06T02:29:15.185Z,100.00
2022-12-06T02:31:49.908Z,100.00
2022-12-06T02:34:22.773Z,100.00
2022-12-06T02:36:58.137Z,100.00
2022-12-06T02:39:32.268Z,100.00
2022-12-06T02:42:06.065Z,100.00
2022-12-06T02:44:40.470Z,100.00
2022-12-06T02:47:13.320Z,100.00
2022-12-06T02:49:46.729Z,100.00
2022-12-06T02:52:16.068Z,100.00
2022-12-06T02:54:49.616Z,100.00
2022-12-06T02:57:20.599Z,100.00
2022-12-06T02:59:55.982Z,100.00
2022-12-06T03:02:26.086Z,100.00
2022-12-06T03:05:04.148Z,100.00
2022-12-06T03:07:41.157Z,100.00
2022-12-06T03:10:37.879Z,100.00
2022-12-06T03:13:14.660Z,100.00
2022-12-06T03:15:52.109Z,100.00
2022-12-06T03:18:29.809Z,100.00
2022-12-06T03:21:04.096Z,100.00
2022-12-06T03:23:37.906Z,100.00
2022-12-06T03:26:08.630Z,100.00
2022-12-06T03:28:40.309Z,100.00
2022-12-06T03:31:12.901Z,100.00
2022-12-06T03:33:47.018Z,100.00
2022-12-06T03:36:18.407Z,100.00
2022-12-06T03:38:53.195Z,100.00
2022-12-06T03:41:26.892Z,100.00
2022-12-06T03:43:56.224Z,100.00
2022-12-06T03:46:29.854Z,100.00
2022-12-06T03:49:03.304Z,100.00
2022-12-06T03:51:34.826Z,100.00
2022-12-06T03:54:06.599Z,100.00
2022-12-06T03:56:37.849Z,100.00
2022-12-06T03:59:07.573Z,100.00
2022-12-06T04:01:37.408Z,100.00
2022-12-06T04:04:07.810Z,100.00
2022-12-06T04:06:36.727Z,100.00
2022-12-06T04:09:23.162Z,100.00
2022-12-06T04:11:52.056Z,100.00
2022-12-06T04:14:20.917Z,100.00
2022-12-06T04:17:07.034Z,100.00
2022-12-06T04:19:37.303Z,100.00
2022-12-06T04:22:23.313Z,100.00
2022-12-06T04:24:52.241Z,100.00
2022-12-06T04:27:38.487Z,100.00
2022-12-06T04:30:26.411Z,100.00
2022-12-06T04:33:12.451Z,100.00
2022-12-06T04:36:00.325Z,100.00
2022-12-06T04:38:42.153Z,100.00
2022-12-06T04:41:11.042Z,100.00
2022-12-06T04:43:44.513Z,100.00
2022-12-06T04:46:16.201Z,100.00
2022-12-06T04:48:45.087Z,97.45
2022-12-06T04:51:16.583Z,100.00
2022-12-06T04:53:45.994Z,99.37
2022-12-06T04:56:14.867Z,98.24
2022-12-06T04:58:43.863Z,98.09
2022-12-06T05:01:12.831Z,100.00
2022-12-06T05:03:44.370Z,100.00
2022-12-06T05:06:13.556Z,100.00
2022-12-06T05:08:43.783Z,100.00
2022-12-06T05:11:12.723Z,100.00
2022-12-06T05:13:41.652Z,100.00
2022-12-06T05:16:10.931Z,100.00
2022-12-06T05:18:39.969Z,100.00
2022-12-06T05:21:11.658Z,100.00
2022-12-06T05:23:40.596Z,100.00
2022-12-06T05:26:13.510Z,100.00
2022-12-06T05:28:42.817Z,100.00
2022-12-06T05:31:12.580Z,100.00
2022-12-06T05:33:41.893Z,100.00
2022-12-06T05:36:12.923Z,100.00
2022-12-06T05:38:43.018Z,100.00
2022-12-06T05:41:16.244Z,100.00
2022-12-06T05:43:45.130Z,100.00
2022-12-06T05:46:14.406Z,100.00
2022-12-06T05:48:43.348Z,100.00
2022-12-06T05:51:12.222Z,100.00
2022-12-06T05:53:41.468Z,100.00
2022-12-06T05:56:13.445Z,100.00
2022-12-06T05:58:43.763Z,100.00
2022-12-06T06:01:12.745Z,100.00
2022-12-06T06:03:47.124Z,100.00
2022-12-06T06:06:16.906Z,100.00
2022-12-06T06:08:45.789Z,100.00
2022-12-06T06:11:14.758Z,100.00
2022-12-06T06:13:44.989Z,100.00
2022-12-06T06:16:13.987Z,100.00
2022-12-06T06:18:42.872Z,100.00
2022-12-06T06:21:11.783Z,100.00
2022-12-06T06:23:40.861Z,100.00
2022-12-06T06:26:10.366Z,100.00
2022-12-06T06:28:39.577Z,100.00
2022-12-06T06:31:10.118Z,100.00
2022-12-06T06:33:39.055Z,100.00
2022-12-06T06:36:08.762Z,99.49
2022-12-06T06:38:37.934Z,97.55
2022-12-06T06:41:07.904Z,98.89
2022-12-06T06:43:36.796Z,99.50
2022-12-06T06:46:08.090Z,100.00
2022-12-06T06:48:40.822Z,99.95
2022-12-06T06:51:12.297Z,99.57
2022-12-06T06:53:41.694Z,99.65
2022-12-06T06:56:11.265Z,100.00
2022-12-06T06:58:40.620Z,100.00
2022-12-06T07:01:10.399Z,100.00
2022-12-06T07:03:40.827Z,100.00
2022-12-06T07:06:11.131Z,100.00
2022-12-06T07:08:41.788Z,98.39
2022-12-06T07:11:12.136Z,95.92
2022-12-06T07:13:45.756Z,97.55
2022-12-06T07:16:18.652Z,99.25
2022-12-06T07:18:49.093Z,97.38
2022-12-06T07:21:18.221Z,90.81
2022-12-06T07:23:47.162Z,90.37
2022-12-06T07:26:18.346Z,88.92
2022-12-06T07:28:49.195Z,88.13
2022-12-06T07:31:20.222Z,88.07
2022-12-06T07:33:53.580Z,87.41
2022-12-06T07:36:23.222Z,86.01
2022-12-06T07:38:53.673Z,86.04
2022-12-06T07:41:41.794Z,86.15
2022-12-06T07:44:37.522Z,84.95
2022-12-06T07:47:06.477Z,84.93
2022-12-06T07:49:36.973Z,84.86
2022-12-06T07:52:05.936Z,83.86
2022-12-06T07:54:34.831Z,81.68
2022-12-06T07:57:03.840Z,82.10
2022-12-06T07:59:32.724Z,81.54
2022-12-06T08:02:02.130Z,80.08
2022-12-06T08:04:31.183Z,78.59
2022-12-06T08:07:02.365Z,78.39
2022-12-06T08:09:31.350Z,78.70
2022-12-06T08:12:00.772Z,78.65
2022-12-06T08:14:29.756Z,77.58
2022-12-06T08:16:58.624Z,78.71
2022-12-06T08:19:27.527Z,78.07
2022-12-06T08:21:56.396Z,76.35
2022-12-06T08:24:26.916Z,76.07
2022-12-06T08:26:56.101Z,75.51
2022-12-06T08:29:24.919Z,75.12
2022-12-06T08:31:53.862Z,75.92
2022-12-06T08:34:22.996Z,74.88
2022-12-06T08:36:51.845Z,76.39
2022-12-06T08:39:20.814Z,75.69
2022-12-06T08:41:58.303Z,77.22
2022-12-06T08:44:28.651Z,79.39
2022-12-06T08:46:58.481Z,78.29
2022-12-06T08:49:29.182Z,77.93
2022-12-06T08:51:59.460Z,77.59
2022-12-06T08:54:29.012Z,76.41
2022-12-06T08:56:59.347Z,75.66
2022-12-06T08:59:28.207Z,76.92
2022-12-06T09:01:57.181Z,73.00
2022-12-06T09:04:26.627Z,71.94
2022-12-06T09:06:55.529Z,72.01
2022-12-06T09:09:24.408Z,72.52
2022-12-06T09:11:53.316Z,71.56
2022-12-06T09:14:24.055Z,71.81
2022-12-06T09:16:53.782Z,71.39
2022-12-06T09:19:22.763Z,68.75
2022-12-06T09:21:51.802Z,70.03
2022-12-06T09:24:20.717Z,68.69
2022-12-06T09:26:49.862Z,70.47
2022-12-06T09:29:20.014Z,69.29
2022-12-06T09:31:50.435Z,76.46
2022-12-06T09:34:19.600Z,75.88
2022-12-06T09:36:52.782Z,72.97
2022-12-06T09:39:24.755Z,71.62
2022-12-06T09:42:12.134Z,68.22
2022-12-06T09:45:22.284Z,71.39
2022-12-06T09:48:10.612Z,69.76
2022-12-06T09:50:48.422Z,73.13
2022-12-06T09:53:30.451Z,75.16
2022-12-06T09:56:06.839Z,70.70
2022-12-06T09:58:51.772Z,68.67
2022-12-06T10:01:28.498Z,65.84
2022-12-06T10:04:30.192Z,68.87
2022-12-06T10:07:08.467Z,68.53
2022-12-06T10:09:47.866Z,66.06
2022-12-06T10:12:31.125Z,63.84
2022-12-06T10:15:15.202Z,62.01
2022-12-06T10:18:03.434Z,64.36
2022-12-06T10:20:42.684Z,61.22
2022-12-06T10:23:24.044Z,60.59
2022-12-06T10:26:01.128Z,60.23
2022-12-06T10:28:38.451Z,60.30
2022-12-06T10:31:16.388Z,60.78
2022-12-06T10:33:55.363Z,64.93
2022-12-06T10:36:43.296Z,67.66
2022-12-06T10:39:19.791Z,68.18
2022-12-06T10:41:57.272Z,68.03
2022-12-06T10:44:32.475Z,68.41
2022-12-06T10:47:05.719Z,67.44
2022-12-06T10:49:45.698Z,65.26
2022-12-06T10:52:25.702Z,70.95
2022-12-06T10:55:03.950Z,67.91
2022-12-06T10:57:42.368Z,70.09
2022-12-06T11:00:17.693Z,66.12
2022-12-06T11:02:54.801Z,63.60
2022-12-06T11:05:29.326Z,67.03
2022-12-06T11:08:06.730Z,62.92
2022-12-06T11:10:36.673Z,62.28
2022-12-06T11:13:16.328Z,60.94
2022-12-06T11:15:51.828Z,59.95
2022-12-06T11:18:22.174Z,59.21
2022-12-06T11:20:58.807Z,57.90
2022-12-06T11:23:40.613Z,58.09
2022-12-06T11:26:22.970Z,60.33
2022-12-06T11:29:00.278Z,61.06
2022-12-06T11:31:36.635Z,61.93
2022-12-06T11:34:07.979Z,63.39
2022-12-06T11:36:39.722Z,63.09
2022-12-06T11:39:12.569Z,61.99
2022-12-06T11:41:43.082Z,61.96
2022-12-06T11:44:18.554Z,63.14
2022-12-06T11:46:49.136Z,64.83
2022-12-06T11:49:28.064Z,64.68
2022-12-06T11:51:58.913Z,62.55
2022-12-06T11:54:33.055Z,63.13
2022-12-06T11:57:17.978Z,61.88
2022-12-06T12:00:15.251Z,61.85
2022-12-06T12:02:46.033Z,60.79
2022-12-06T12:05:21.013Z,59.85
2022-12-06T12:07:53.628Z,60.78
2022-12-06T12:10:35.318Z,60.20
2022-12-06T12:13:42.790Z,58.69
2022-12-06T12:16:19.290Z,59.17
2022-12-06T12:18:56.415Z,60.51
2022-12-06T12:21:35.830Z,61.06
2022-12-06T12:24:06.301Z,58.99
2022-12-06T12:26:42.608Z,58.81
2022-12-06T12:29:18.069Z,60.22
2022-12-06T12:31:53.136Z,58.59
2022-12-06T12:34:23.884Z,59.18
2022-12-06T12:36:55.232Z,61.71
2022-12-06T12:39:34.105Z,62.54
2022-12-06T12:42:06.458Z,62.70
2022-12-06T12:44:39.714Z,61.13
2022-12-06T12:47:19.836Z,60.73
2022-12-06T12:50:02.496Z,59.01
2022-12-06T12:52:33.257Z,58.02
2022-12-06T12:55:14.964Z,58.15
2022-12-06T12:57:47.587Z,57.07
2022-12-06T13:00:17.297Z,58.46
2022-12-06T13:02:51.301Z,61.33
2022-12-06T13:05:33.413Z,61.75
2022-12-06T13:08:13.064Z,62.49
2022-12-06T13:10:45.783Z,60.21
2022-12-06T13:13:20.352Z,58.19
2022-12-06T13:15:51.471Z,56.27
2022-12-06T13:18:23.758Z,55.21
2022-12-06T13:20:55.875Z,56.18
2022-12-06T13:23:27.845Z,57.12
2022-12-06T13:26:05.624Z,54.25
2022-12-06T13:28:41.608Z,54.80
2022-12-06T13:31:17.234Z,56.48
2022-12-06T13:33:52.163Z,55.67
2022-12-06T13:36:24.363Z,57.08
2022-12-06T13:38:53.851Z,59.95
2022-12-06T13:42:10.242Z,63.29
2022-12-06T13:44:49.628Z,62.16
2022-12-06T13:47:39.341Z,62.95
2022-12-06T13:50:41.747Z,66.95
2022-12-06T13:53:10.647Z,66.66
2022-12-06T13:55:59.099Z,67.10
2022-12-06T13:58:51.194Z,68.48
2022-12-06T14:01:40.938Z,75.64
2022-12-06T14:07:01.630Z,76.70
2022-12-06T14:09:42.328Z,82.70
2022-12-06T14:12:20.271Z,82.87
2022-12-06T14:14:59.481Z,85.99
2022-12-06T14:18:01.724Z,90.26
2022-12-06T14:20:31.588Z,91.63
2022-12-06T14:23:00.518Z,93.67
2022-12-06T14:25:31.860Z,95.82
2022-12-06T14:28:06.634Z,93.04
2022-12-06T14:30:35.600Z,95.39
2022-12-06T14:33:19.299Z,93.49
2022-12-06T14:35:52.827Z,93.22
2022-12-06T14:38:24.423Z,94.18
2022-12-06T14:41:17.777Z,92.65
2022-12-06T14:43:48.263Z,90.41
2022-12-06T14:46:19.619Z,86.30
2022-12-06T14:49:13.100Z,84.36
2022-12-06T14:51:42.165Z,82.13
2022-12-06T14:54:42.748Z,81.37
2022-12-06T14:57:26.309Z,77.46
2022-12-06T15:00:27.088Z,75.67
2022-12-06T15:03:05.349Z,76.99
2022-12-06T15:05:39.382Z,78.09
2022-12-06T15:08:36.276Z,78.39
2022-12-06T15:11:07.370Z,79.61
2022-12-06T15:13:35.233Z,79.21
2022-12-06T15:16:13.950Z,78.80
2022-12-06T15:18:45.908Z,79.02
2022-12-06T15:21:18.937Z,80.44
2022-12-06T15:23:49.921Z,80.61
2022-12-06T15:26:20.705Z,80.11
2022-12-06T15:28:50.873Z,80.77
2022-12-06T15:31:22.843Z,80.46
2022-12-06T15:33:51.820Z,81.10
2022-12-06T15:36:24.312Z,79.21
2022-12-06T15:38:53.644Z,78.53
2022-12-06T15:41:26.481Z,78.48
2022-12-06T15:43:57.700Z,78.69
2022-12-06T15:46:28.678Z,77.51
2022-12-06T15:48:58.668Z,77.42
2022-12-06T15:51:30.418Z,77.83
2022-12-06T15:54:00.225Z,78.86
2022-12-06T15:56:30.998Z,79.91
2022-12-06T15:59:00.048Z,78.61
2022-12-06T16:01:33.627Z,78.17
2022-12-06T16:04:03.746Z,77.34
2022-12-06T16:06:34.273Z,77.86
2022-12-06T16:09:04.391Z,76.84
2022-12-06T16:11:33.259Z,75.43
2022-12-06T16:14:02.213Z,76.08
2022-12-06T16:16:31.140Z,77.33
2022-12-06T16:19:00.167Z,80.42
2022-12-06T16:21:31.937Z,85.35
2022-12-06T16:24:13.443Z,88.32
2022-12-06T16:26:45.381Z,86.37
2022-12-06T16:29:17.513Z,84.08
2022-12-06T16:31:46.750Z,82.47
2022-12-06T16:34:16.269Z,84.38
2022-12-06T16:36:56.908Z,83.92
2022-12-06T16:39:27.861Z,84.71
2022-12-06T16:41:56.782Z,85.13
2022-12-06T16:44:25.871Z,85.81
2022-12-06T16:46:54.936Z,84.13
2022-12-06T16:52:14.469Z,84.03
2022-12-06T16:54:44.915Z,84.17
2022-12-06T16:57:15.024Z,83.55
2022-12-06T16:59:43.962Z,83.29
2022-12-06T17:02:28.708Z,85.08
2022-12-06T17:04:59.110Z,89.24
2022-12-06T17:07:28.523Z,90.66
2022-12-06T17:09:59.062Z,88.06
2022-12-06T17:12:28.457Z,86.42
2022-12-06T17:14:57.367Z,85.57
2022-12-06T17:17:29.409Z,84.01
2022-12-06T17:19:58.376Z,85.41
2022-12-06T17:22:27.315Z,90.65
2022-12-06T17:24:56.239Z,93.17
2022-12-06T17:27:26.486Z,88.76
2022-12-06T17:29:55.374Z,89.29
2022-12-06T17:32:24.385Z,90.18
2022-12-06T17:34:53.248Z,100.00
2022-12-06T17:37:22.155Z,100.00
2022-12-06T17:39:50.972Z,92.76
2022-12-06T17:42:37.504Z,94.25
2022-12-06T17:45:08.737Z,84.08
2022-12-06T17:47:37.624Z,75.61
2022-12-06T17:50:08.140Z,76.55
2022-12-06T17:52:37.052Z,81.66
2022-12-06T17:55:06.559Z,85.23
2022-12-06T17:57:35.551Z,91.96
2022-12-06T18:00:06.335Z,91.54
2022-12-06T18:02:37.294Z,89.97
2022-12-06T18:05:06.931Z,90.11
2022-12-06T18:07:35.948Z,89.38
2022-12-06T18:10:05.513Z,90.79
2022-12-06T18:12:35.247Z,91.60
2022-12-06T18:15:04.696Z,95.58
2022-12-06T18:17:33.758Z,93.41
2022-12-06T18:20:05.024Z,91.10
2022-12-06T18:22:33.864Z,91.21
2022-12-06T18:25:02.932Z,98.82
2022-12-06T18:27:32.131Z,100.00
2022-12-06T18:30:01.542Z,96.37
2022-12-06T18:32:30.901Z,93.57
2022-12-06T18:35:00.114Z,94.43
2022-12-06T18:37:31.180Z,95.60
2022-12-06T18:40:00.460Z,97.34
2022-12-06T18:42:29.732Z,97.76
2022-12-06T18:44:58.842Z,96.41
2022-12-06T18:47:27.779Z,95.89
2022-12-06T18:49:57.608Z,99.91
2022-12-06T18:52:27.988Z,100.00
2022-12-06T18:54:58.783Z,100.00
2022-12-06T18:57:32.045Z,96.07
2022-12-06T19:00:03.039Z,96.48
2022-12-06T19:02:32.473Z,97.97
2022-12-06T19:05:02.491Z,97.85
2022-12-06T19:07:31.907Z,100.00
2022-12-06T19:10:02.402Z,100.00
2022-12-06T19:12:31.986Z,99.67
2022-12-06T19:15:00.876Z,96.22
2022-12-06T19:17:29.855Z,96.57
2022-12-06T19:19:58.889Z,95.21
2022-12-06T19:22:27.950Z,93.68
2022-12-06T19:24:56.955Z,92.09
2022-12-06T19:27:27.242Z,92.37
2022-12-06T19:29:56.054Z,100.00
2022-12-06T19:32:25.098Z,88.71
2022-12-06T19:34:55.831Z,84.84
2022-12-06T19:37:24.692Z,86.71
2022-12-06T19:39:53.535Z,87.57
2022-12-06T19:42:42.423Z,89.33
2022-12-06T19:45:12.878Z,88.39
2022-12-06T19:47:41.750Z,90.25
2022-12-06T19:50:11.731Z,92.55
2022-12-06T19:52:40.634Z,94.48
2022-12-06T19:55:10.205Z,93.07
2022-12-06T19:57:39.904Z,98.12
2022-12-06T20:00:10.255Z,89.79
2022-12-06T20:02:42.524Z,84.61
2022-12-06T20:05:18.908Z,84.13
2022-12-06T20:07:47.842Z,85.78
2022-12-06T20:10:16.864Z,89.01
2022-12-06T20:12:47.035Z,96.08
2022-12-06T20:15:16.130Z,94.60
2022-12-06T20:17:46.414Z,91.89
2022-12-06T20:20:15.445Z,88.28
2022-12-06T20:22:44.437Z,83.34
2022-12-06T20:25:13.486Z,78.87
2022-12-06T20:27:55.998Z,77.93
2022-12-06T20:30:25.344Z,80.91
2022-12-06T20:32:55.725Z,84.01
2022-12-06T20:35:26.671Z,86.05
2022-12-06T20:37:55.575Z,87.55
2022-12-06T20:40:31.123Z,83.70
2022-12-06T20:43:00.503Z,84.24
2022-12-06T20:45:29.685Z,84.84
2022-12-06T20:48:01.186Z,86.58
2022-12-06T20:50:30.101Z,86.89
2022-12-06T20:52:58.933Z,87.32
2022-12-06T20:55:28.569Z,87.61
2022-12-06T20:57:57.473Z,90.34
2022-12-06T21:00:27.218Z,88.52
2022-12-06T21:02:56.740Z,86.47
2022-12-06T21:05:30.572Z,86.85
2022-12-06T21:07:59.581Z,88.34
2022-12-06T21:10:28.531Z,88.49
2022-12-06T21:13:01.413Z,94.37
2022-12-06T21:15:33.398Z,92.85
2022-12-06T21:18:03.253Z,88.55
2022-12-06T21:20:39.216Z,93.42
2022-12-06T21:23:08.805Z,92.38
2022-12-06T21:25:38.165Z,92.44
2022-12-06T21:28:07.047Z,90.44
2022-12-06T21:30:35.949Z,91.17
2022-12-06T21:33:05.179Z,90.63
2022-12-06T21:35:37.759Z,90.75
2022-12-06T21:38:06.616Z,90.81
2022-12-06T21:40:36.797Z,89.74
2022-12-06T21:43:06.536Z,87.81
2022-12-06T21:45:35.762Z,87.63
2022-12-06T21:48:05.327Z,87.56
2022-12-06T21:50:34.887Z,86.57
2022-12-06T21:53:05.809Z,86.17
2022-12-06T21:55:34.813Z,88.39
2022-12-06T21:58:04.414Z,92.52
2022-12-06T22:00:33.314Z,93.26
2022-12-06T22:03:02.327Z,95.84
2022-12-06T22:05:31.332Z,97.26
2022-12-06T22:08:00.259Z,94.67
2022-12-06T22:10:31.141Z,92.43
2022-12-06T22:13:00.020Z,91.51
2022-12-06T22:15:30.041Z,90.64
2022-12-06T22:17:59.054Z,90.91
2022-12-06T22:20:28.533Z,95.28
2022-12-06T22:22:57.396Z,97.30
2022-12-06T22:25:26.324Z,94.45
2022-12-06T22:27:56.764Z,97.79
2022-12-06T22:30:25.657Z,93.64
2022-12-06T22:32:54.665Z,92.77
2022-12-06T22:35:23.641Z,90.74
2022-12-06T22:37:52.586Z,94.08
2022-12-06T22:40:21.456Z,98.56
2022-12-06T22:42:50.627Z,96.40
2022-12-06T22:45:20.921Z,95.58
2022-12-06T22:47:50.748Z,93.96
2022-12-06T22:50:19.666Z,96.80
2022-12-06T22:52:48.547Z,95.90
2022-12-06T22:55:17.529Z,86.62
2022-12-06T22:57:46.357Z,90.29
2022-12-06T23:00:16.068Z,92.36
2022-12-06T23:02:46.723Z,93.29
2022-12-06T23:05:15.932Z,93.20
2022-12-06T23:07:44.877Z,95.25
2022-12-06T23:10:13.846Z,93.35
2022-12-06T23:12:42.739Z,94.20
2022-12-06T23:15:12.040Z,94.78
2022-12-06T23:17:40.850Z,95.06
2022-12-06T23:20:11.905Z,97.43
2022-12-06T23:22:40.793Z,96.58
2022-12-06T23:25:10.365Z,91.88
2022-12-06T23:27:39.237Z,90.82
2022-12-06T23:30:09.648Z,89.85
2022-12-06T23:32:38.542Z,89.78
2022-12-06T23:35:08.225Z,92.25
2022-12-06T23:37:38.941Z,92.35
2022-12-06T23:40:09.329Z,92.59
2022-12-06T23:42:38.246Z,94.49
2022-12-06T23:45:08.412Z,92.63
2022-12-06T23:47:37.270Z,90.54
2022-12-06T23:50:08.042Z,90.19
2022-12-06T23:52:38.317Z,90.53
2022-12-06T23:55:07.790Z,89.79
2022-12-06T23:57:36.664Z,88.63
